Terminal Aerodrome Forecast
Issued by NWS

Home | Current Version | Previous Version | Text Only | Print | Product List | Glossary On
Versions: 1 2 3 4 5 6 7 8 9 10 11 12
000
FTUS45 KGGW 300525
TAFOLF
TAF
KOLF 300525Z 3006/0106 18005KT P6SM FEW090 SCT120
     FM301000 11004KT P6SM FEW220
     FM301500 18007KT P6SM BKN220
     FM302100 24012G21KT P6SM BKN110=

USA.gov is the U.S. government's official web portal to all federal, state and local government web resources and services.